Time;durP1;ratioP1;P1;durP2;ratioP2;P2;SDS_P1;SDS_P2;PMS_P1;PMS_P2;Temp;Humidity;BMP_temperature;BMP_pressure;BME280_temperature;BME280_humidity;BME280_pressure;Samples;Min_cycle;Max_cycle;Signal;HPM_P1;HPM_P2
2021/01/07 00:01:21;;;;;;;4.40;2.60;;;11.40;71.00;;;;;;5128401;27;20440;-55
2021/01/07 00:03:47;;;;;;;2.80;2.60;;;11.40;70.80;;;;;;5133822;27;20526;-58
2021/01/07 00:06:15;;;;;;;2.60;2.40;;;11.40;70.80;;;;;;5135506;27;20428;-54
2021/01/07 00:08:43;;;;;;;2.97;2.50;;;11.40;70.80;;;;;;5134439;27;20435;-56
2021/01/07 00:11:10;;;;;;;3.70;2.30;;;11.30;70.90;;;;;;5128949;27;20466;-59
2021/01/07 00:13:37;;;;;;;2.60;2.40;;;11.30;70.90;;;;;;5134482;27;20543;-57
2021/01/07 00:16:04;;;;;;;4.67;2.50;;;11.30;71.00;;;;;;5134545;27;20435;-54
2021/01/07 00:18:31;;;;;;;2.90;2.80;;;11.30;71.00;;;;;;5131158;27;20445;-58
2021/01/07 00:20:58;;;;;;;3.57;2.30;;;11.30;71.10;;;;;;5116217;27;20514;-54
2021/01/07 00:23:25;;;;;;;2.37;2.27;;;11.30;71.10;;;;;;5134965;27;20427;-57
2021/01/07 00:25:53;;;;;;;3.03;2.37;;;11.30;70.90;;;;;;5134766;27;20470;-58
2021/01/07 00:28:20;;;;;;;2.40;2.30;;;11.30;70.90;;;;;;5123571;27;20519;-59
2021/01/07 00:30:47;;;;;;;2.17;2.07;;;11.40;70.90;;;;;;5127209;27;20439;-59
2021/01/07 00:33:15;;;;;;;2.20;2.00;;;11.40;70.70;;;;;;5133304;27;20520;-59
2021/01/07 00:35:42;;;;;;;2.10;2.00;;;11.40;70.70;;;;;;5134521;27;20528;-58
2021/01/07 00:38:09;;;;;;;2.13;2.03;;;11.30;70.70;;;;;;5134411;27;20471;-58
2021/01/07 00:40:36;;;;;;;2.60;2.40;;;11.40;70.80;;;;;;5134437;27;20520;-59
2021/01/07 00:43:04;;;;;;;2.30;2.17;;;11.40;70.70;;;;;;5134648;27;20463;-59
2021/01/07 00:45:30;;;;;;;2.20;2.10;;;11.30;70.80;;;;;;5128007;27;20440;-58
2021/01/07 00:47:57;;;;;;;2.10;2.00;;;11.30;70.80;;;;;;5114643;28;20501;-58
2021/01/07 00:50:24;;;;;;;2.10;1.90;;;11.40;70.70;;;;;;5134014;28;20496;-59
2021/01/07 00:52:51;;;;;;;2.83;2.63;;;11.40;70.50;;;;;;5133840;27;20466;-56
2021/01/07 00:55:18;;;;;;;2.40;2.20;;;11.40;70.50;;;;;;5134085;28;20500;-56
2021/01/07 00:57:45;;;;;;;2.60;2.50;;;11.40;70.50;;;;;;5134536;28;20534;-58
2021/01/07 01:00:15;;;;;;;3.10;2.10;;;11.40;70.40;;;;;;5133968;28;20517;-57
2021/01/07 01:02:41;;;;;;;2.30;2.10;;;11.40;70.50;;;;;;5134277;28;20503;-58
2021/01/07 01:05:09;;;;;;;2.30;2.10;;;11.30;70.70;;;;;;5134769;28;20545;-58
2021/01/07 01:07:36;;;;;;;2.60;2.40;;;11.30;70.70;;;;;;5133803;28;20499;-58
2021/01/07 01:10:06;;;;;;;2.03;1.93;;;11.30;70.80;;;;;;5132674;28;20462;-58
2021/01/07 01:12:33;;;;;;;2.20;2.10;;;11.30;70.80;;;;;;5129701;28;20528;-58
2021/01/07 01:14:59;;;;;;;2.70;2.13;;;11.40;70.60;;;;;;5132393;28;20521;-57
2021/01/07 01:17:27;;;;;;;2.40;2.30;;;11.40;70.50;;;;;;5133232;28;20458;-57
2021/01/07 01:19:54;;;;;;;2.30;2.17;;;11.40;71.20;;;;;;5132679;27;20459;-55
2021/01/07 01:22:21;;;;;;;2.17;1.97;;;11.30;70.70;;;;;;5133278;28;20494;-57
2021/01/07 01:24:47;;;;;;;2.13;2.03;;;11.30;70.70;;;;;;5133301;28;20447;-58
2021/01/07 01:27:14;;;;;;;2.20;2.10;;;11.20;70.80;;;;;;5133190;28;20431;-59
2021/01/07 01:29:41;;;;;;;2.10;2.00;;;11.30;70.70;;;;;;5134539;27;20535;-58
2021/01/07 01:32:08;;;;;;;1.83;1.73;;;11.30;70.70;;;;;;5137077;27;20545;-57
2021/01/07 01:34:35;;;;;;;2.57;2.37;;;11.30;70.60;;;;;;5137382;27;20419;-58
2021/01/07 01:37:04;;;;;;;1.90;1.80;;;11.30;70.70;;;;;;5136799;27;20454;-59
2021/01/07 01:39:31;;;;;;;2.30;2.20;;;11.30;70.70;;;;;;5134007;27;20462;-59
2021/01/07 01:41:58;;;;;;;3.13;2.40;;;11.30;70.60;;;;;;5137081;27;20432;-58
2021/01/07 01:44:25;;;;;;;2.23;2.13;;;11.40;70.60;;;;;;5135829;27;20485;-59
2021/01/07 01:46:52;;;;;;;2.07;1.97;;;11.30;70.40;;;;;;5136028;27;20458;-59
2021/01/07 01:49:19;;;;;;;2.37;2.17;;;11.30;70.30;;;;;;5136342;27;20525;-59
2021/01/07 01:51:47;;;;;;;2.30;2.10;;;11.30;70.50;;;;;;5136810;27;20530;-58
2021/01/07 01:54:14;;;;;;;1.97;1.87;;;11.20;70.80;;;;;;5137436;27;20545;-59
2021/01/07 01:56:40;;;;;;;1.90;1.60;;;11.20;70.90;;;;;;5134890;27;20467;-59
2021/01/07 01:59:07;;;;;;;2.00;1.90;;;11.30;70.80;;;;;;5136525;27;20506;-58
2021/01/07 02:01:34;;;;;;;2.87;2.67;;;11.20;70.70;;;;;;5137331;27;20423;-57
2021/01/07 02:04:01;;;;;;;2.07;1.97;;;11.30;70.80;;;;;;5136925;27;20436;-59
2021/01/07 02:06:40;;;;;;;2.00;1.90;;;11.30;70.50;;;;;;5131624;27;20540;-59
2021/01/07 02:09:08;;;;;;;1.83;1.73;;;11.20;70.80;;;;;;5133983;27;20468;-59
2021/01/07 02:11:35;;;;;;;2.40;2.27;;;11.20;70.70;;;;;;5132504;27;20455;-59
2021/01/07 02:14:02;;;;;;;1.80;1.70;;;11.20;70.70;;;;;;5124286;27;20464;-58
2021/01/07 02:16:29;;;;;;;2.13;2.03;;;11.30;70.70;;;;;;5117188;28;20436;-59
2021/01/07 02:18:56;;;;;;;1.93;1.83;;;11.20;70.70;;;;;;5116686;28;20433;-57
2021/01/07 02:21:23;;;;;;;2.37;2.27;;;11.20;70.70;;;;;;5117189;28;20594;-56
2021/01/07 02:23:51;;;;;;;2.37;2.27;;;11.20;70.80;;;;;;5132266;27;20474;-57
2021/01/07 02:26:19;;;;;;;1.80;1.70;;;11.20;70.70;;;;;;5137730;27;20449;-59
2021/01/07 02:28:45;;;;;;;2.63;2.43;;;11.20;70.80;;;;;;5137126;27;20525;-58
2021/01/07 02:31:12;;;;;;;2.73;2.23;;;11.20;70.60;;;;;;5137255;27;20479;-59
2021/01/07 02:33:39;;;;;;;2.10;2.00;;;11.20;70.50;;;;;;5137411;27;20479;-59
2021/01/07 02:36:06;;;;;;;2.30;2.10;;;11.20;70.50;;;;;;5137123;27;20510;-58
2021/01/07 02:38:34;;;;;;;2.47;2.30;;;11.20;70.30;;;;;;5137379;27;20470;-58
2021/01/07 02:41:01;;;;;;;2.77;2.23;;;11.20;70.60;;;;;;5136365;27;20498;-59
2021/01/07 02:43:28;;;;;;;2.90;2.30;;;11.20;70.60;;;;;;5137164;27;20435;-59
2021/01/07 02:45:55;;;;;;;2.37;2.27;;;11.30;70.50;;;;;;5137719;27;20463;-59
2021/01/07 02:48:22;;;;;;;2.20;2.10;;;11.20;70.30;;;;;;5137062;27;20423;-58
2021/01/07 02:50:49;;;;;;;2.97;2.70;;;11.20;70.40;;;;;;5136313;27;20459;-59
2021/01/07 02:53:16;;;;;;;2.20;2.10;;;11.20;70.40;;;;;;5137049;27;20558;-59
2021/01/07 02:55:43;;;;;;;2.60;2.40;;;11.20;70.40;;;;;;5137055;27;20474;-59
2021/01/07 02:58:10;;;;;;;2.60;2.47;;;11.10;70.70;;;;;;5136534;27;20534;-59
2021/01/07 03:00:38;;;;;;;2.67;2.57;;;11.20;70.70;;;;;;5136416;27;20478;-55
2021/01/07 03:03:05;;;;;;;2.57;2.47;;;11.20;70.60;;;;;;5136708;27;20510;-57
2021/01/07 03:05:33;;;;;;;2.57;2.37;;;11.20;70.60;;;;;;5136625;27;20511;-59
2021/01/07 03:08:00;;;;;;;3.00;2.80;;;11.20;70.40;;;;;;5136570;27;20526;-57
2021/01/07 03:10:26;;;;;;;2.40;2.00;;;11.20;70.40;;;;;;5136508;27;20584;-59
2021/01/07 03:12:54;;;;;;;2.60;2.40;;;11.20;70.40;;;;;;5136681;27;20467;-59
2021/01/07 03:15:21;;;;;;;2.90;2.70;;;11.20;70.50;;;;;;5136464;27;20526;-58
2021/01/07 03:17:48;;;;;;;2.03;1.93;;;11.10;70.50;;;;;;5136562;27;20431;-59
2021/01/07 03:20:15;;;;;;;3.00;2.23;;;11.10;70.50;;;;;;5131296;27;20460;-59
2021/01/07 03:22:42;;;;;;;3.10;2.80;;;11.10;70.60;;;;;;5136681;27;20451;-59
2021/01/07 03:25:11;;;;;;;2.97;2.70;;;11.20;70.60;;;;;;5136219;27;20474;-58
2021/01/07 03:27:38;;;;;;;2.40;2.30;;;11.10;70.50;;;;;;5136522;27;20592;-59
2021/01/07 03:30:08;;;;;;;2.97;2.23;;;11.20;70.60;;;;;;5135693;27;20439;-57
2021/01/07 03:32:35;;;;;;;2.97;2.77;;;11.10;70.70;;;;;;5136223;27;20565;-58
2021/01/07 03:35:02;;;;;;;2.50;2.30;;;11.10;70.60;;;;;;5135946;27;20492;-58
2021/01/07 03:37:29;;;;;;;2.77;2.57;;;11.10;70.70;;;;;;5136445;27;20505;-58
2021/01/07 03:39:55;;;;;;;2.40;2.23;;;11.10;70.80;;;;;;5135634;27;20470;-57
2021/01/07 03:42:22;;;;;;;3.03;2.83;;;11.10;70.80;;;;;;5136316;27;20509;-57
2021/01/07 03:44:49;;;;;;;2.67;2.50;;;11.10;70.40;;;;;;5135716;27;20542;-57
2021/01/07 03:47:17;;;;;;;2.47;2.20;;;11.20;70.60;;;;;;5136233;27;20434;-58
2021/01/07 03:49:44;;;;;;;2.77;2.57;;;11.10;70.40;;;;;;5135350;27;20481;-59
2021/01/07 03:52:11;;;;;;;2.20;2.10;;;11.10;70.60;;;;;;5121494;27;20475;-60
2021/01/07 03:54:38;;;;;;;2.50;2.40;;;11.10;70.60;;;;;;5115560;28;20534;-58
2021/01/07 03:57:07;;;;;;;2.63;2.43;;;11.10;70.40;;;;;;5115376;28;20471;-57
2021/01/07 03:59:34;;;;;;;2.73;2.53;;;11.20;70.50;;;;;;5115523;28;20420;-59
2021/01/07 04:02:01;;;;;;;2.33;2.23;;;11.10;70.50;;;;;;5135849;27;20575;-58
2021/01/07 04:04:28;;;;;;;2.70;2.50;;;11.10;70.60;;;;;;5136057;27;20435;-57
2021/01/07 04:06:55;;;;;;;2.87;2.67;;;11.10;70.50;;;;;;5135821;27;20467;-59
2021/01/07 04:09:22;;;;;;;3.27;3.00;;;11.10;70.30;;;;;;5126142;27;20501;-58
2021/01/07 04:11:49;;;;;;;2.63;2.50;;;11.10;70.40;;;;;;5114557;28;20531;-59
2021/01/07 04:14:15;;;;;;;4.13;2.70;;;11.10;70.50;;;;;;5115058;28;20547;-59
2021/01/07 04:16:42;;;;;;;2.80;2.60;;;11.10;70.30;;;;;;5115108;28;20474;-59
2021/01/07 04:19:09;;;;;;;3.40;2.40;;;11.20;70.40;;;;;;5114696;28;20519;-58
2021/01/07 04:21:45;;;;;;;2.53;2.43;;;11.10;70.40;;;;;;5109821;28;20491;-59
2021/01/07 04:24:13;;;;;;;2.70;2.50;;;11.10;70.60;;;;;;5114697;28;20445;-57
2021/01/07 04:26:41;;;;;;;2.80;2.60;;;11.10;70.40;;;;;;5120431;27;20478;-59
2021/01/07 04:29:08;;;;;;;2.70;2.50;;;11.00;70.50;;;;;;5134706;27;20489;-59
2021/01/07 04:31:35;;;;;;;2.50;2.40;;;11.00;70.50;;;;;;5135435;27;20470;-59
2021/01/07 04:34:02;;;;;;;3.23;3.03;;;11.10;70.50;;;;;;5135195;27;20502;-57
2021/01/07 04:36:29;;;;;;;2.20;2.10;;;11.10;70.30;;;;;;5135292;27;20524;-58
2021/01/07 04:38:57;;;;;;;2.70;2.60;;;11.00;70.40;;;;;;5134584;27;20430;-59
2021/01/07 04:41:23;;;;;;;2.80;2.70;;;11.00;70.40;;;;;;5135381;27;20466;-59
2021/01/07 04:43:54;;;;;;;2.57;2.47;;;11.10;70.30;;;;;;5133838;27;20473;-59
2021/01/07 04:46:21;;;;;;;2.83;2.63;;;11.00;70.40;;;;;;5114660;28;20471;-57
2021/01/07 04:48:48;;;;;;;2.73;2.53;;;11.10;70.30;;;;;;5114130;28;20471;-59
2021/01/07 04:51:15;;;;;;;2.70;2.50;;;11.10;70.40;;;;;;5114423;28;20456;-59
2021/01/07 04:53:43;;;;;;;2.43;2.33;;;11.10;70.20;;;;;;5114448;28;20486;-57
2021/01/07 04:56:10;;;;;;;3.07;2.30;;;11.10;70.30;;;;;;5114735;28;20448;-58
2021/01/07 04:58:37;;;;;;;2.83;2.50;;;11.10;70.30;;;;;;5114372;28;20456;-60
2021/01/07 05:01:04;;;;;;;2.60;2.50;;;11.00;70.20;;;;;;5114395;28;20466;-58
2021/01/07 05:03:31;;;;;;;2.37;2.27;;;11.10;70.30;;;;;;5116551;28;20444;-58
2021/01/07 05:05:58;;;;;;;2.30;2.20;;;11.00;70.40;;;;;;5118289;28;20464;-57
2021/01/07 05:08:25;;;;;;;2.30;2.20;;;11.00;70.30;;;;;;5118575;28;20501;-59
2021/01/07 05:10:52;;;;;;;2.53;2.33;;;11.00;70.30;;;;;;5118177;28;20451;-59
2021/01/07 05:13:21;;;;;;;2.73;2.53;;;11.00;70.40;;;;;;5118572;28;20528;-59
2021/01/07 05:15:47;;;;;;;2.77;2.50;;;11.00;70.30;;;;;;5118985;28;20527;-58
2021/01/07 05:18:15;;;;;;;2.57;2.43;;;11.00;70.60;;;;;;5121073;27;20448;-59
2021/01/07 05:20:42;;;;;;;2.77;2.57;;;11.00;70.40;;;;;;5135695;27;20455;-57
2021/01/07 05:23:09;;;;;;;2.60;2.50;;;11.00;70.40;;;;;;5130405;27;20427;-57
2021/01/07 05:25:38;;;;;;;2.40;2.30;;;11.00;70.50;;;;;;5138838;27;20435;-57
2021/01/07 05:28:05;;;;;;;5.67;2.40;;;11.00;70.40;;;;;;5138530;27;20579;-59
2021/01/07 05:30:33;;;;;;;2.47;2.37;;;11.10;70.30;;;;;;5138582;27;20466;-54
2021/01/07 05:33:01;;;;;;;2.30;2.20;;;11.00;70.20;;;;;;5138498;27;20558;-59
2021/01/07 05:35:28;;;;;;;2.60;2.40;;;11.10;70.20;;;;;;5133875;27;20458;-59
2021/01/07 05:37:55;;;;;;;2.77;2.57;;;11.00;70.20;;;;;;5138477;27;20540;-59
2021/01/07 05:40:22;;;;;;;2.20;2.10;;;11.00;70.10;;;;;;5137965;27;20427;-58
2021/01/07 05:42:49;;;;;;;2.20;2.07;;;11.00;70.10;;;;;;5138446;27;20527;-59
2021/01/07 05:45:17;;;;;;;2.67;2.47;;;11.00;70.20;;;;;;5138657;27;20491;-58
2021/01/07 05:47:45;;;;;;;2.73;2.50;;;11.00;70.30;;;;;;5120528;27;20507;-59
2021/01/07 05:50:13;;;;;;;2.40;2.30;;;11.00;70.40;;;;;;5117953;28;20443;-60
2021/01/07 05:52:43;;;;;;;2.07;1.97;;;11.00;70.50;;;;;;5117588;27;20527;-59
2021/01/07 05:55:15;;;;;;;2.60;2.40;;;11.00;70.50;;;;;;5129097;27;20527;-59
2021/01/07 05:57:42;;;;;;;2.47;2.33;;;11.00;70.50;;;;;;5137410;27;20430;-59
2021/01/07 06:00:10;;;;;;;2.97;2.77;;;11.00;70.40;;;;;;5128836;27;20495;-59
2021/01/07 06:02:37;;;;;;;2.53;2.43;;;11.00;70.50;;;;;;5138408;27;20427;-59
2021/01/07 06:05:07;;;;;;;2.37;2.17;;;11.00;70.30;;;;;;5137991;27;20526;-60
2021/01/07 06:07:34;;;;;;;2.33;2.20;;;11.00;70.50;;;;;;5138171;27;20430;-59
2021/01/07 06:10:01;;;;;;;2.50;2.40;;;10.90;70.60;;;;;;5137489;27;20464;-59
2021/01/07 06:12:28;;;;;;;2.73;2.53;;;11.00;70.60;;;;;;5137342;27;20435;-59
2021/01/07 06:14:58;;;;;;;2.40;2.30;;;11.00;70.50;;;;;;5136899;27;20500;-60
2021/01/07 06:17:25;;;;;;;2.20;2.10;;;11.00;70.40;;;;;;5137988;27;20472;-59
2021/01/07 06:19:54;;;;;;;2.97;2.77;;;10.90;70.40;;;;;;5137419;27;20530;-59
2021/01/07 06:22:22;;;;;;;2.40;2.20;;;11.00;70.40;;;;;;5126502;27;20539;-59
2021/01/07 06:24:53;;;;;;;2.90;2.70;;;11.00;70.30;;;;;;5117139;28;20439;-59
2021/01/07 06:27:25;;;;;;;2.70;2.50;;;11.00;70.40;;;;;;5116952;28;20535;-59
2021/01/07 06:29:57;;;;;;;2.73;2.53;;;11.00;70.40;;;;;;5116623;28;20440;-60
2021/01/07 06:32:24;;;;;;;2.57;2.43;;;11.00;70.40;;;;;;5117505;28;20467;-59
2021/01/07 06:34:51;;;;;;;3.20;3.00;;;11.00;70.40;;;;;;5116848;28;20460;-60
2021/01/07 06:37:32;;;;;;;2.30;2.20;;;11.00;70.30;;;;;;5115817;28;20444;-59
2021/01/07 06:39:59;;;;;;;2.90;2.70;;;10.90;70.40;;;;;;5129126;27;20474;-60
2021/01/07 06:42:25;;;;;;;2.87;2.67;;;11.00;70.20;;;;;;5135185;27;20458;-60
2021/01/07 06:44:54;;;;;;;2.60;2.40;;;11.00;70.20;;;;;;5123767;27;20436;-59
2021/01/07 06:47:21;;;;;;;2.60;2.40;;;11.00;70.20;;;;;;5116724;28;20455;-60
2021/01/07 06:49:48;;;;;;;2.70;2.50;;;11.00;70.10;;;;;;5135025;27;20541;-60
2021/01/07 06:52:15;;;;;;;3.10;2.90;;;10.90;70.20;;;;;;5137297;27;20473;-58
2021/01/07 06:54:45;;;;;;;2.90;2.70;;;11.00;70.30;;;;;;5137248;27;20511;-59
2021/01/07 06:57:13;;;;;;;2.50;2.30;;;11.00;69.80;;;;;;5136939;27;20497;-60
2021/01/07 06:59:56;;;;;;;2.90;2.70;;;11.00;70.00;;;;;;5136675;27;20514;-58
2021/01/07 07:02:22;;;;;;;2.50;2.27;;;11.00;70.10;;;;;;5134554;27;20471;-59
2021/01/07 07:04:58;;;;;;;2.77;2.57;;;10.90;70.10;;;;;;5136942;27;20424;-60
2021/01/07 07:07:57;;;;;;;2.57;2.37;;;11.00;70.10;;;;;;5136606;27;20537;-60
2021/01/07 07:11:00;;;;;;;2.80;2.60;;;10.90;70.10;;;;;;5136418;27;20491;-60
2021/01/07 07:13:31;;;;;;;2.37;2.27;;;11.00;70.20;;;;;;5133493;27;20570;-60
2021/01/07 07:16:01;;;;;;;2.70;2.50;;;10.90;70.30;;;;;;5121204;27;20457;-60
2021/01/07 07:18:32;;;;;;;1.90;1.80;;;10.90;70.20;;;;;;5115919;28;20471;-59
2021/01/07 07:21:15;;;;;;;2.50;2.30;;;10.90;70.10;;;;;;5115804;28;20432;-58
2021/01/07 07:23:45;;;;;;;3.10;2.57;;;10.90;70.10;;;;;;5116355;27;20452;-60
2021/01/07 07:26:13;;;;;;;2.33;2.23;;;10.90;70.10;;;;;;5115318;28;20478;-60
2021/01/07 07:28:44;;;;;;;2.67;2.53;;;11.00;70.00;;;;;;5115515;28;20475;-58
2021/01/07 07:31:12;;;;;;;2.93;2.73;;;10.90;70.00;;;;;;5115863;28;20435;-57
2021/01/07 07:33:39;;;;;;;3.10;2.90;;;10.90;70.00;;;;;;5115668;28;20507;-59
2021/01/07 07:36:07;;;;;;;2.77;2.57;;;11.00;69.80;;;;;;5115582;28;20471;-59
2021/01/07 07:38:35;;;;;;;2.90;2.70;;;10.90;69.90;;;;;;5115692;28;20490;-60
2021/01/07 07:41:07;;;;;;;2.97;2.73;;;10.90;70.00;;;;;;5115978;27;20501;-60
2021/01/07 07:43:35;;;;;;;2.90;2.70;;;10.90;70.00;;;;;;5115490;28;20500;-59
2021/01/07 07:46:03;;;;;;;2.80;2.60;;;10.90;70.00;;;;;;5115594;28;20420;-59
2021/01/07 07:48:31;;;;;;;2.40;2.30;;;10.90;69.80;;;;;;5115476;28;20501;-57
2021/01/07 07:51:05;;;;;;;3.10;2.90;;;10.90;69.90;;;;;;5115435;28;20458;-58
2021/01/07 07:53:32;;;;;;;2.97;2.77;;;11.00;69.80;;;;;;5115324;28;20524;-59
2021/01/07 07:55:59;;;;;;;2.57;2.47;;;11.00;69.80;;;;;;5115486;28;20513;-58
2021/01/07 07:58:26;;;;;;;2.60;2.40;;;10.90;70.20;;;;;;5115315;28;20472;-57
2021/01/07 08:00:53;;;;;;;3.33;2.60;;;10.90;70.20;;;;;;5114673;28;20515;-57
2021/01/07 08:03:23;;;;;;;2.70;2.50;;;10.90;70.00;;;;;;5115206;28;20471;-59
2021/01/07 08:05:50;;;;;;;2.47;2.37;;;11.00;70.00;;;;;;5115175;28;20436;-60
2021/01/07 08:08:24;;;;;;;2.53;2.33;;;10.90;70.00;;;;;;5115398;27;20516;-59
2021/01/07 08:10:51;;;;;;;2.80;2.60;;;10.90;70.10;;;;;;5114513;28;20444;-59
2021/01/07 08:13:21;;;;;;;4.10;3.00;;;10.90;70.20;;;;;;5115633;28;20498;-59
2021/01/07 08:15:48;;;;;;;3.03;2.83;;;11.00;70.00;;;;;;5114833;28;20494;-59
2021/01/07 08:18:16;;;;;;;2.87;2.67;;;11.00;70.00;;;;;;5114792;28;20439;-58
2021/01/07 08:20:44;;;;;;;2.50;2.40;;;11.00;70.00;;;;;;5114540;28;20515;-57
2021/01/07 08:23:11;;;;;;;2.70;2.50;;;11.00;70.00;;;;;;5115188;28;20439;-59
2021/01/07 08:25:38;;;;;;;2.83;2.63;;;11.00;70.00;;;;;;5126273;27;20443;-60
2021/01/07 08:28:14;;;;;;;3.13;2.93;;;10.90;70.10;;;;;;5135190;27;20439;-59
2021/01/07 08:30:44;;;;;;;2.50;2.30;;;10.90;70.00;;;;;;5126397;27;20427;-59
2021/01/07 08:33:11;;;;;;;3.50;3.20;;;10.90;69.90;;;;;;5135536;27;20504;-57
2021/01/07 08:35:37;;;;;;;3.07;2.87;;;10.90;70.10;;;;;;5119609;27;20444;-56
2021/01/07 08:38:05;;;;;;;2.60;2.50;;;10.90;70.20;;;;;;5114131;28;20474;-59
2021/01/07 08:40:32;;;;;;;2.50;2.40;;;11.00;70.10;;;;;;5114052;28;20436;-57
2021/01/07 08:43:10;;;;;;;2.87;2.67;;;10.90;70.00;;;;;;5114966;28;20571;-57
2021/01/07 08:45:40;;;;;;;3.37;3.07;;;11.00;70.80;;;;;;5115136;28;20473;-60
2021/01/07 08:48:08;;;;;;;2.90;2.70;;;11.00;70.10;;;;;;5114682;28;20531;-55
2021/01/07 08:50:35;;;;;;;3.17;2.87;;;10.90;70.10;;;;;;5114086;28;20432;-58
2021/01/07 08:53:08;;;;;;;2.90;2.70;;;10.90;70.00;;;;;;5114396;28;20500;-60
2021/01/07 08:55:48;;;;;;;4.17;3.13;;;10.90;70.00;;;;;;5114700;28;20428;-56
2021/01/07 08:58:22;;;;;;;3.10;2.90;;;11.00;70.10;;;;;;5114766;28;20439;-55
2021/01/07 09:00:50;;;;;;;3.30;3.00;;;10.90;70.20;;;;;;5114001;28;20518;-59
2021/01/07 09:03:17;;;;;;;2.90;2.70;;;10.90;70.30;;;;;;5114527;28;20595;-59
2021/01/07 09:05:44;;;;;;;3.00;2.80;;;10.90;70.10;;;;;;5114440;28;20439;-58
2021/01/07 09:08:12;;;;;;;2.93;2.83;;;11.00;69.90;;;;;;5114376;28;20497;-59
2021/01/07 09:10:39;;;;;;;3.10;2.90;;;11.00;69.90;;;;;;5113806;28;20443;-57
2021/01/07 09:13:16;;;;;;;3.13;2.93;;;11.00;69.90;;;;;;5114150;28;20440;-55
2021/01/07 09:15:43;;;;;;;2.27;2.17;;;10.90;69.90;;;;;;5114224;28;20467;-58
2021/01/07 09:18:10;;;;;;;2.63;2.40;;;10.90;70.00;;;;;;5114793;28;20439;-56
2021/01/07 09:20:37;;;;;;;3.30;3.00;;;11.00;70.00;;;;;;5134364;28;20439;-59
2021/01/07 09:23:04;;;;;;;2.60;2.40;;;11.10;69.80;;;;;;5134990;28;20439;-59
2021/01/07 09:25:32;;;;;;;3.00;2.80;;;11.10;69.70;;;;;;5135074;28;20433;-59
2021/01/07 09:27:59;;;;;;;3.13;2.93;;;11.10;69.70;;;;;;5125503;28;20501;-58
2021/01/07 09:30:26;;;;;;;2.57;2.47;;;11.20;69.60;;;;;;5113568;28;20444;-55
2021/01/07 09:32:53;;;;;;;3.40;3.20;;;11.20;69.60;;;;;;5114051;28;20428;-59
2021/01/07 09:35:20;;;;;;;3.10;2.90;;;11.20;69.40;;;;;;5116082;28;20479;-58
2021/01/07 09:37:58;;;;;;;2.50;2.40;;;11.30;69.40;;;;;;5114101;28;20442;-59
2021/01/07 09:40:25;;;;;;;2.40;2.30;;;11.40;69.30;;;;;;5113418;28;20435;-52
2021/01/07 09:42:53;;;;;;;2.40;2.30;;;11.40;69.10;;;;;;5113883;28;20439;-52
2021/01/07 09:45:20;;;;;;;2.60;2.40;;;11.50;69.20;;;;;;5114159;28;20432;-54
2021/01/07 09:47:47;;;;;;;3.07;2.87;;;11.60;68.90;;;;;;5114079;28;20436;-57
2021/01/07 09:50:14;;;;;;;2.80;2.60;;;11.50;68.90;;;;;;5114719;28;20522;-59
2021/01/07 09:52:41;;;;;;;2.83;2.43;;;11.50;68.90;;;;;;5117717;28;20531;-59
2021/01/07 09:55:09;;;;;;;5.47;2.40;;;11.50;69.20;;;;;;5117663;27;20543;-59
2021/01/07 09:57:36;;;;;;;2.83;2.63;;;11.40;69.30;;;;;;5117460;28;20436;-58
2021/01/07 10:00:05;;;;;;;2.77;2.60;;;11.50;69.30;;;;;;5117288;27;20467;-59
2021/01/07 10:02:32;;;;;;;2.57;2.47;;;11.50;69.30;;;;;;5119152;27;20489;-59
2021/01/07 10:04:59;;;;;;;3.20;3.00;;;11.60;69.30;;;;;;5138011;27;20427;-59
2021/01/07 10:07:26;;;;;;;2.77;2.57;;;11.60;69.10;;;;;;5137884;27;20438;-59
2021/01/07 10:09:53;;;;;;;2.67;2.57;;;11.60;69.20;;;;;;5137399;27;20481;-58
2021/01/07 10:12:20;;;;;;;2.67;2.47;;;11.60;69.10;;;;;;5137150;27;20516;-59
2021/01/07 10:14:47;;;;;;;2.20;2.10;;;11.60;69.10;;;;;;5138059;27;20513;-59
2021/01/07 10:17:15;;;;;;;2.50;2.40;;;11.60;69.20;;;;;;5137822;27;20435;-59
2021/01/07 10:19:41;;;;;;;2.50;2.30;;;11.60;69.10;;;;;;5137175;27;20526;-59
2021/01/07 10:22:09;;;;;;;2.77;2.67;;;11.70;69.10;;;;;;5119648;27;20539;-57
2021/01/07 10:24:39;;;;;;;2.70;2.50;;;11.70;69.10;;;;;;5117105;28;20443;-58
2021/01/07 10:27:06;;;;;;;2.77;2.57;;;11.70;69.00;;;;;;5117095;28;20428;-58
2021/01/07 10:29:34;;;;;;;2.57;2.47;;;11.70;69.70;;;;;;5116729;27;20456;-59
2021/01/07 10:32:03;;;;;;;2.67;2.47;;;11.80;69.10;;;;;;5116989;28;20453;-58
2021/01/07 10:34:35;;;;;;;2.43;2.33;;;11.70;69.10;;;;;;5116696;28;20490;-59
2021/01/07 10:37:04;;;;;;;2.10;2.00;;;11.70;69.20;;;;;;5116816;28;20524;-58
2021/01/07 10:39:32;;;;;;;2.70;2.50;;;11.70;69.20;;;;;;5129359;27;20471;-59
2021/01/07 10:41:59;;;;;;;2.90;2.73;;;11.80;69.10;;;;;;5136256;27;20458;-59
2021/01/07 10:44:27;;;;;;;2.47;2.30;;;11.90;68.90;;;;;;5135707;27;20435;-59
2021/01/07 10:46:58;;;;;;;2.80;2.57;;;11.90;68.80;;;;;;5135946;27;20457;-59
2021/01/07 10:49:26;;;;;;;3.03;2.83;;;12.00;68.70;;;;;;5135553;27;20427;-59
2021/01/07 10:52:19;;;;;;;3.00;2.80;;;11.90;68.70;;;;;;5135973;27;20463;-57
2021/01/07 10:54:53;;;;;;;2.87;2.67;;;11.90;68.90;;;;;;5135608;27;20492;-59
2021/01/07 10:57:59;;;;;;;2.53;2.33;;;11.80;69.00;;;;;;5135983;27;20427;-59
2021/01/07 11:00:29;;;;;;;2.40;2.30;;;11.80;69.40;;;;;;5134399;27;20484;-59
2021/01/07 11:03:01;;;;;;;3.00;2.70;;;11.80;69.50;;;;;;5135649;27;20509;-58
2021/01/07 11:05:29;;;;;;;2.63;2.53;;;11.70;69.60;;;;;;5135632;27;20427;-59
2021/01/07 11:08:07;;;;;;;2.73;2.53;;;11.60;69.70;;;;;;5136808;27;20508;-58
2021/01/07 11:10:33;;;;;;;3.00;2.80;;;11.70;69.70;;;;;;5136073;27;20435;-59
2021/01/07 11:13:03;;;;;;;2.27;2.17;;;11.60;69.80;;;;;;5136873;27;20547;-57
2021/01/07 11:15:30;;;;;;;2.83;2.63;;;11.70;69.80;;;;;;5119735;27;20470;-59
2021/01/07 11:17:58;;;;;;;2.80;2.60;;;11.70;69.90;;;;;;5135571;27;20459;-59
2021/01/07 11:20:27;;;;;;;2.40;2.30;;;11.60;69.80;;;;;;5134903;27;20457;-58
2021/01/07 11:22:54;;;;;;;2.50;2.40;;;11.70;69.90;;;;;;5135005;27;20500;-59
2021/01/07 11:25:22;;;;;;;2.93;2.73;;;11.70;69.90;;;;;;5135194;27;20503;-59
2021/01/07 11:27:50;;;;;;;2.77;2.57;;;11.70;69.80;;;;;;5132482;27;20442;-59
2021/01/07 11:30:18;;;;;;;2.40;2.30;;;11.70;69.60;;;;;;5134741;27;20419;-59
2021/01/07 11:32:46;;;;;;;2.47;2.33;;;11.70;69.70;;;;;;5134854;27;20475;-59
2021/01/07 11:35:12;;;;;;;2.73;2.53;;;11.90;69.50;;;;;;5134801;27;20466;-59
2021/01/07 11:37:53;;;;;;;3.10;2.90;;;11.90;69.30;;;;;;5135354;27;20463;-59
2021/01/07 11:40:25;;;;;;;3.30;3.00;;;11.80;69.60;;;;;;5135376;27;20484;-59
2021/01/07 11:43:19;;;;;;;2.50;2.37;;;11.80;69.60;;;;;;5135927;27;20526;-59
2021/01/07 11:45:46;;;;;;;3.00;2.80;;;11.80;69.70;;;;;;5136002;27;20435;-59
2021/01/07 11:48:19;;;;;;;2.40;2.30;;;11.90;69.50;;;;;;5135654;27;20435;-59
2021/01/07 11:50:45;;;;;;;2.57;2.47;;;11.90;69.60;;;;;;5135066;27;20506;-59
2021/01/07 11:53:12;;;;;;;2.50;2.40;;;11.90;69.70;;;;;;5135836;27;20435;-59
2021/01/07 11:55:40;;;;;;;2.53;2.40;;;11.90;69.60;;;;;;5135745;27;20516;-59
2021/01/07 11:58:16;;;;;;;2.40;2.30;;;12.00;69.50;;;;;;5129153;27;20439;-59
2021/01/07 12:00:43;;;;;;;2.87;2.67;;;12.00;69.40;;;;;;5114185;28;20457;-59
2021/01/07 12:03:12;;;;;;;2.90;2.70;;;11.90;69.60;;;;;;5115102;28;20527;-59
2021/01/07 12:05:38;;;;;;;2.93;2.73;;;11.80;69.70;;;;;;5115088;28;20428;-59
2021/01/07 12:08:11;;;;;;;2.80;2.60;;;11.80;69.50;;;;;;5131428;27;20486;-58
2021/01/07 12:10:40;;;;;;;3.00;2.80;;;11.80;69.50;;;;;;5135382;27;20443;-58
2021/01/07 12:13:12;;;;;;;3.30;3.00;;;11.80;69.40;;;;;;5134901;27;20465;-59
2021/01/07 12:15:41;;;;;;;3.13;2.93;;;11.80;69.30;;;;;;5130379;27;20472;-59
2021/01/07 12:18:08;;;;;;;2.80;2.60;;;11.80;69.50;;;;;;5114955;28;20468;-59
2021/01/07 12:20:35;;;;;;;3.30;2.93;;;11.70;69.40;;;;;;5114156;28;20435;-58
2021/01/07 12:23:03;;;;;;;3.00;2.80;;;11.70;69.40;;;;;;5114596;28;20474;-59
2021/01/07 12:25:30;;;;;;;3.10;2.97;;;11.70;69.30;;;;;;5115270;28;20471;-58
2021/01/07 12:27:58;;;;;;;4.00;2.97;;;11.70;69.80;;;;;;5115041;28;20467;-59
2021/01/07 12:30:25;;;;;;;3.07;2.77;;;11.70;69.20;;;;;;5114270;28;20458;-58
2021/01/07 12:33:02;;;;;;;3.07;2.87;;;11.80;69.10;;;;;;5114763;27;20496;-59
2021/01/07 12:35:34;;;;;;;3.63;3.37;;;11.70;69.00;;;;;;5114676;28;20575;-58
2021/01/07 12:38:05;;;;;;;2.80;2.60;;;11.80;69.20;;;;;;5114456;28;20462;-58
2021/01/07 12:40:34;;;;;;;3.33;3.10;;;11.70;69.10;;;;;;5114214;28;20420;-59
2021/01/07 12:43:06;;;;;;;13.80;7.13;;;11.80;69.00;;;;;;5123005;27;20518;-64
2021/01/07 12:45:34;;;;;;;6.77;5.90;;;10.80;62.80;;;;;;5131639;27;20454;-65
2021/01/07 12:48:36;;;;;;;11.17;8.27;;;12.00;59.90;;;;;;5129180;27;20547;-62
2021/01/07 12:51:03;;;;;;;9.97;7.07;;;9.30;65.00;;;;;;5121467;27;20565;-62
2021/01/07 12:53:29;;;;;;;10.90;7.70;;;8.10;67.70;;;;;;5132590;27;20510;-62
2021/01/07 12:55:56;;;;;;;6.37;5.70;;;7.50;70.80;;;;;;5130096;28;20498;-56